createdAt,value
2022-09-05T00:01:43.155Z,63.15
2022-09-05T00:04:34.639Z,67.35
2022-09-05T00:07:34.375Z,69.41
2022-09-05T00:11:07.195Z,65.87
2022-09-05T00:13:42.345Z,66.79
2022-09-05T00:16:56.821Z,60.57
2022-09-05T00:22:52.618Z,59.84
2022-09-05T00:24:28.310Z,59.43
2022-09-05T00:25:59.630Z,59.17
2022-09-05T00:28:54.019Z,70.46
2022-09-05T00:31:54.005Z,64.15
2022-09-05T00:34:55.017Z,61.65
2022-09-05T00:37:36.258Z,69.45
2022-09-05T00:40:21.496Z,67.92
2022-09-05T00:42:56.501Z,68.91
2022-09-05T00:45:49.187Z,70.51
2022-09-05T00:48:45.383Z,62.70
2022-09-05T00:51:39.893Z,60.63
2022-09-05T00:54:40.668Z,60.20
2022-09-05T00:57:30.894Z,67.57
2022-09-05T01:00:23.012Z,67.80
2022-09-05T01:03:28.987Z,70.40
2022-09-05T01:06:14.631Z,70.75
2022-09-05T01:09:08.377Z,74.40
2022-09-05T01:11:43.455Z,64.17
2022-09-05T01:14:38.862Z,61.93
2022-09-05T01:17:19.574Z,64.19
2022-09-05T01:20:18.622Z,64.99
2022-09-05T01:23:24.307Z,62.38
2022-09-05T01:26:16.202Z,60.58
2022-09-05T01:29:15.390Z,67.69
2022-09-05T01:32:33.005Z,65.74
2022-09-05T01:35:38.795Z,67.05
2022-09-05T01:38:33.188Z,62.81
2022-09-05T01:41:19.109Z,63.55
2022-09-05T01:44:07.999Z,61.44
2022-09-05T01:46:46.962Z,61.63
2022-09-05T01:49:42.823Z,61.17
2022-09-05T01:52:47.729Z,64.47
2022-09-05T01:56:08.812Z,67.85
2022-09-05T01:58:45.261Z,65.74
2022-09-05T02:01:32.396Z,66.25
2022-09-05T02:04:33.146Z,62.02
2022-09-05T02:07:31.176Z,63.88
2022-09-05T02:10:12.090Z,64.84
2022-09-05T02:13:02.635Z,65.60
2022-09-05T02:15:59.179Z,61.70
2022-09-05T02:19:07.124Z,69.42
2022-09-05T02:21:42.246Z,69.54
2022-09-05T02:24:27.947Z,67.54
2022-09-05T02:28:03.767Z,64.76
2022-09-05T02:30:15.593Z,73.71
2022-09-05T02:32:57.916Z,72.49
2022-09-05T02:35:46.119Z,73.08
2022-09-05T02:42:00.174Z,72.12
2022-09-05T02:45:10.188Z,70.36
2022-09-05T02:45:11.422Z,75.06
2022-09-05T02:47:39.898Z,75.61
2022-09-05T02:53:52.064Z,68.48
2022-09-05T02:57:37.039Z,68.83
2022-09-05T02:57:42.482Z,65.86
2022-09-05T03:00:10.106Z,64.87
2022-09-05T03:03:10.726Z,67.11
2022-09-05T03:05:56.226Z,62.90
2022-09-05T03:08:43.294Z,65.55
2022-09-05T03:11:29.235Z,67.30
2022-09-05T03:14:34.895Z,65.49
2022-09-05T03:17:25.613Z,67.91
2022-09-05T03:19:54.540Z,67.98
2022-09-05T03:22:40.159Z,63.80
2022-09-05T03:25:19.176Z,69.11
2022-09-05T03:28:13.982Z,68.37
2022-09-05T03:31:14.854Z,70.61
2022-09-05T03:34:26.736Z,67.52
2022-09-05T03:37:33.627Z,76.68
2022-09-05T03:40:37.571Z,70.28
2022-09-05T03:43:42.049Z,70.33
2022-09-05T03:46:18.612Z,65.74
2022-09-05T03:50:37.258Z,70.08
2022-09-05T03:57:10.415Z,70.45
2022-09-05T03:57:13.299Z,73.28
2022-09-05T03:58:36.762Z,69.02
2022-09-05T04:05:31.032Z,65.16
2022-09-05T04:08:08.103Z,73.17
2022-09-05T04:08:28.481Z,66.30
2022-09-05T04:10:51.868Z,69.32
2022-09-05T04:13:51.586Z,64.63
2022-09-05T04:16:33.389Z,70.96
2022-09-05T04:19:21.079Z,66.85
2022-09-05T04:22:20.742Z,64.68
2022-09-05T04:25:05.795Z,70.89
2022-09-05T04:27:54.395Z,66.41
2022-09-05T04:30:49.533Z,75.35
2022-09-05T04:33:36.007Z,68.65
2022-09-05T04:36:25.239Z,75.99
2022-09-05T04:39:30.981Z,70.48
2022-09-05T04:42:09.980Z,72.66
2022-09-05T04:44:57.737Z,66.90
2022-09-05T04:47:50.193Z,73.78
2022-09-05T04:50:23.525Z,74.90
2022-09-05T04:53:36.949Z,68.88
2022-09-05T04:56:17.167Z,70.03
2022-09-05T05:03:29.942Z,76.75
2022-09-05T05:06:01.473Z,69.60
2022-09-05T05:06:09.939Z,67.01
2022-09-05T05:08:48.069Z,75.00
2022-09-05T05:18:00.552Z,67.51
2022-09-05T05:18:02.451Z,74.16
2022-09-05T05:18:38.793Z,64.94
2022-09-05T05:20:48.131Z,65.73
2022-09-05T05:23:52.376Z,70.23
2022-09-05T05:26:33.593Z,66.30
2022-09-05T05:29:15.286Z,66.22
2022-09-05T05:31:56.157Z,64.67
2022-09-05T05:34:43.547Z,69.67
2022-09-05T05:37:23.281Z,66.93
2022-09-05T05:40:26.537Z,70.21
2022-09-05T05:43:20.903Z,65.67
2022-09-05T05:45:59.811Z,68.08
2022-09-05T05:48:37.384Z,71.82
2022-09-05T05:51:34.608Z,68.50
2022-09-05T05:54:46.616Z,67.24
2022-09-05T05:57:54.435Z,65.68
2022-09-05T06:00:51.459Z,69.16
2022-09-05T06:03:27.440Z,65.03
2022-09-05T06:06:14.261Z,68.87
2022-09-05T06:10:47.565Z,70.39
2022-09-05T06:14:55.862Z,71.76
2022-09-05T06:15:22.087Z,65.92
2022-09-05T06:17:51.690Z,64.66
2022-09-05T06:22:08.806Z,66.58
2022-09-05T06:24:02.502Z,63.47
2022-09-05T06:26:48.467Z,70.42
2022-09-05T06:29:47.187Z,70.63
2022-09-05T06:32:46.809Z,70.06
2022-09-05T06:36:11.121Z,63.29
2022-09-05T06:39:01.260Z,64.36
2022-09-05T06:41:50.939Z,66.32
2022-09-05T06:44:48.063Z,64.16
2022-09-05T06:47:33.337Z,65.77
2022-09-05T06:50:27.294Z,61.00
2022-09-05T06:53:28.107Z,59.98
2022-09-05T06:56:09.344Z,61.02
2022-09-05T06:59:19.770Z,61.98
2022-09-05T07:02:17.681Z,63.82
2022-09-05T07:05:39.783Z,63.62
2022-09-05T07:08:34.892Z,62.92
2022-09-05T07:11:17.926Z,62.40
2022-09-05T07:13:53.779Z,62.27
2022-09-05T07:16:39.343Z,68.22
2022-09-05T07:19:27.881Z,70.02
2022-09-05T07:22:46.022Z,66.76
2022-09-05T07:24:58.332Z,65.07
2022-09-05T07:28:19.574Z,64.06
2022-09-05T07:30:52.758Z,66.57
2022-09-05T07:33:31.359Z,64.14
2022-09-05T07:36:17.580Z,63.55
2022-09-05T07:39:02.261Z,70.72
2022-09-05T07:41:59.185Z,65.79
2022-09-05T07:44:33.255Z,64.93
2022-09-05T07:47:21.166Z,64.38
2022-09-05T07:51:21.542Z,66.25
2022-09-05T07:56:52.761Z,61.40
2022-09-05T07:56:54.314Z,63.68
2022-09-05T07:58:55.781Z,60.81
2022-09-05T08:01:27.538Z,62.96
2022-09-05T08:04:05.918Z,59.93
2022-09-05T08:07:24.266Z,59.00
2022-09-05T08:10:06.431Z,60.09
2022-09-05T08:12:51.958Z,58.98
2022-09-05T08:15:26.592Z,58.33
2022-09-05T08:18:25.615Z,59.52
2022-09-05T08:21:14.357Z,57.47
2022-09-05T08:23:56.050Z,59.58
2022-09-05T08:26:36.509Z,57.62
2022-09-05T08:29:18.128Z,59.89
2022-09-05T08:32:08.752Z,55.39
2022-09-05T08:34:59.464Z,57.69
2022-09-05T08:37:34.193Z,56.68
2022-09-05T08:40:14.092Z,59.31
2022-09-05T08:46:35.672Z,58.19
2022-09-05T08:46:41.383Z,57.46
2022-09-05T08:49:39.473Z,57.39
2022-09-05T08:52:28.167Z,57.49
2022-09-05T08:55:39.291Z,58.86
2022-09-05T08:58:18.708Z,59.50
2022-09-05T09:01:04.740Z,58.98
2022-09-05T09:04:02.851Z,54.36
2022-09-05T09:07:45.006Z,55.85
2022-09-05T09:10:25.396Z,58.00
2022-09-05T09:13:04.787Z,50.25
2022-09-05T09:16:07.266Z,53.63
2022-09-05T09:18:54.374Z,55.37
2022-09-05T09:21:29.658Z,51.96
2022-09-05T09:24:11.829Z,47.82
2022-09-05T09:26:51.684Z,50.79
2022-09-05T09:29:19.980Z,48.88
2022-09-05T09:32:17.402Z,46.77
2022-09-05T09:35:06.143Z,45.43
2022-09-05T09:37:55.342Z,44.73
2022-09-05T09:40:52.387Z,47.10
2022-09-05T09:44:09.145Z,44.94
2022-09-05T09:46:43.835Z,44.53
2022-09-05T09:49:43.022Z,47.27
2022-09-05T09:52:34.845Z,46.94
2022-09-05T09:55:41.382Z,45.05
2022-09-05T09:58:33.274Z,41.32
2022-09-05T10:01:34.805Z,42.87
2022-09-05T10:10:36.400Z,47.25
2022-09-05T10:10:52.534Z,45.12
2022-09-05T10:11:09.448Z,43.98
2022-09-05T10:13:42.024Z,45.64
2022-09-05T10:16:49.587Z,44.46
2022-09-05T10:22:43.341Z,40.55
2022-09-05T10:25:35.390Z,37.66
2022-09-05T10:28:33.951Z,43.28
2022-09-05T10:34:49.067Z,39.14
2022-09-05T10:35:13.251Z,41.43
2022-09-05T10:37:15.711Z,40.83
2022-09-05T10:39:51.605Z,38.94
2022-09-05T10:42:43.316Z,45.54
2022-09-05T10:45:39.141Z,41.58
2022-09-05T10:48:25.181Z,38.05
2022-09-05T10:51:27.214Z,38.75
2022-09-05T10:54:08.368Z,37.37
2022-09-05T10:57:03.686Z,37.67
2022-09-05T11:02:19.091Z,39.24
2022-09-05T11:02:48.133Z,36.51
2022-09-05T11:05:29.611Z,40.54
2022-09-05T11:08:07.474Z,38.36
2022-09-05T11:10:34.751Z,38.90
2022-09-05T11:13:14.405Z,42.07
2022-09-05T11:16:04.679Z,36.11
2022-09-05T11:18:56.175Z,35.48
2022-09-05T11:21:44.095Z,37.00
2022-09-05T11:24:27.760Z,36.54
2022-09-05T11:27:25.164Z,34.34
2022-09-05T11:30:31.015Z,33.29
2022-09-05T11:39:47.231Z,34.41
2022-09-05T11:40:04.352Z,35.75
2022-09-05T11:40:10.550Z,33.75
2022-09-05T11:42:11.321Z,36.34
2022-09-05T11:45:11.602Z,37.77
2022-09-05T11:48:20.007Z,35.10
2022-09-05T11:51:06.552Z,36.30
2022-09-05T11:53:49.278Z,32.04
2022-09-05T11:56:45.489Z,35.16
2022-09-05T11:59:33.788Z,34.64
2022-09-05T12:02:48.293Z,32.27
2022-09-05T12:06:06.376Z,31.19
2022-09-05T12:09:01.106Z,35.62
2022-09-05T12:11:40.091Z,33.16
2022-09-05T12:14:55.030Z,30.72
2022-09-05T12:17:43.914Z,33.47
2022-09-05T12:20:41.629Z,30.85
2022-09-05T12:24:07.773Z,31.72
2022-09-05T12:27:44.491Z,33.79
2022-09-05T12:29:33.484Z,34.13
2022-09-05T12:34:12.008Z,30.78
2022-09-05T12:36:08.055Z,31.52
2022-09-05T12:40:55.794Z,31.92
2022-09-05T12:41:37.772Z,28.65
2022-09-05T12:44:39.010Z,31.20
2022-09-05T12:47:16.988Z,31.06
2022-09-05T12:50:15.345Z,28.96
2022-09-05T12:52:50.886Z,29.56
2022-09-05T12:55:23.535Z,27.21
2022-09-05T13:03:01.032Z,28.33
2022-09-05T13:03:14.304Z,27.44
2022-09-05T13:04:13.402Z,30.65
2022-09-05T13:06:40.355Z,29.80
2022-09-05T13:11:19.905Z,28.53
2022-09-05T13:14:57.073Z,26.43
2022-09-05T13:15:27.646Z,29.08
2022-09-05T13:18:08.877Z,31.44
2022-09-05T13:20:40.051Z,31.01
2022-09-05T13:23:36.055Z,30.82
2022-09-05T13:26:37.073Z,29.83
2022-09-05T13:30:03.721Z,30.78
2022-09-05T13:38:04.722Z,30.90
2022-09-05T13:38:06.158Z,24.94
2022-09-05T13:38:47.440Z,28.36
2022-09-05T13:41:28.450Z,26.75
2022-09-05T13:44:25.633Z,27.67
2022-09-05T13:47:28.856Z,28.33
2022-09-05T13:50:13.880Z,28.20
2022-09-05T13:52:46.504Z,29.34
2022-09-05T13:55:28.482Z,25.74
2022-09-05T13:58:37.319Z,24.91
2022-09-05T14:01:10.199Z,23.77
2022-09-05T14:04:03.994Z,27.01
2022-09-05T14:10:26.517Z,27.17
2022-09-05T14:13:28.485Z,29.19
2022-09-05T14:16:04.323Z,31.15
2022-09-05T14:18:56.198Z,25.04
2022-09-05T14:21:29.683Z,22.81
2022-09-05T14:24:05.446Z,25.88
2022-09-05T14:26:58.373Z,23.88
2022-09-05T14:29:49.448Z,28.37
2022-09-05T14:37:39.269Z,25.88
2022-09-05T14:37:42.859Z,27.52
2022-09-05T14:38:19.959Z,25.24
2022-09-05T14:41:05.682Z,27.59
2022-09-05T14:44:05.192Z,23.03
2022-09-05T14:47:02.895Z,26.98
2022-09-05T14:49:55.377Z,22.59
2022-09-05T14:52:35.578Z,22.46
2022-09-05T15:02:40.714Z,30.61
2022-09-05T15:02:41.796Z,31.06
2022-09-05T15:06:40.181Z,25.44
2022-09-05T15:12:05.633Z,23.91
2022-09-05T15:12:27.610Z,25.09
2022-09-05T15:15:26.520Z,22.06
2022-09-05T15:17:59.617Z,24.09
2022-09-05T15:20:38.679Z,23.95
2022-09-05T15:23:16.753Z,27.83
2022-09-05T15:25:59.479Z,25.83
2022-09-05T15:28:37.386Z,28.56
2022-09-05T15:31:12.297Z,26.47
2022-09-05T15:33:44.498Z,24.74
2022-09-05T15:36:17.505Z,30.58
2022-09-05T15:38:56.280Z,27.27
2022-09-05T15:41:26.040Z,27.13
2022-09-05T15:44:09.711Z,24.51
2022-09-05T15:47:05.834Z,24.02
2022-09-05T15:49:53.794Z,26.76
2022-09-05T15:52:25.102Z,25.79
2022-09-05T15:55:11.352Z,23.18
2022-09-05T15:57:49.139Z,25.53
2022-09-05T16:00:51.409Z,24.61
2022-09-05T16:04:36.460Z,22.72
2022-09-05T16:10:37.192Z,28.26
2022-09-05T16:10:58.030Z,27.53
2022-09-05T16:12:17.105Z,28.24
2022-09-05T16:15:55.256Z,29.63
2022-09-05T16:23:17.150Z,29.50
2022-09-05T16:23:36.359Z,29.00
2022-09-05T16:23:43.151Z,27.24
2022-09-05T16:26:25.678Z,26.93
2022-09-05T16:29:26.216Z,28.55
2022-09-05T16:31:54.079Z,26.88
2022-09-05T16:34:37.426Z,29.48
2022-09-05T16:37:17.046Z,30.48
2022-09-05T16:39:51.998Z,31.03
2022-09-05T16:42:46.563Z,31.65
2022-09-05T16:45:33.130Z,29.47
2022-09-05T16:48:02.899Z,28.57
2022-09-05T16:50:40.236Z,29.04
2022-09-05T16:53:38.145Z,27.91
2022-09-05T16:56:33.591Z,27.53
2022-09-05T16:59:42.526Z,27.88
2022-09-05T17:02:25.156Z,28.83
2022-09-05T17:05:03.649Z,29.34
2022-09-05T17:07:51.031Z,30.65
2022-09-05T17:10:26.988Z,29.06
2022-09-05T17:12:57.700Z,30.22
2022-09-05T17:15:51.609Z,30.68
2022-09-05T17:18:26.001Z,29.68
2022-09-05T17:21:01.705Z,29.92
2022-09-05T17:29:20.109Z,29.99
2022-09-05T17:29:30.534Z,29.67
2022-09-05T17:32:48.757Z,29.73
2022-09-05T17:35:41.466Z,30.02
2022-09-05T17:38:39.004Z,30.86
2022-09-05T17:42:28.668Z,30.72
2022-09-05T17:45:18.489Z,30.70
2022-09-05T17:47:54.100Z,31.12
2022-09-05T17:50:28.147Z,30.92
2022-09-05T17:53:26.310Z,31.25
2022-09-05T17:56:13.015Z,32.03
2022-09-05T17:59:07.527Z,32.72
2022-09-05T18:01:36.396Z,32.87
2022-09-05T18:04:08.349Z,32.31
2022-09-05T18:09:37.392Z,32.55
2022-09-05T18:12:13.974Z,35.03
2022-09-05T18:15:02.083Z,35.12
2022-09-05T18:17:52.230Z,35.87
2022-09-05T18:20:38.649Z,35.34
2022-09-05T18:26:27.996Z,35.30
2022-09-05T18:29:14.588Z,34.94
2022-09-05T18:31:45.635Z,38.07
2022-09-05T18:34:24.441Z,36.06
2022-09-05T18:36:58.872Z,36.80
2022-09-05T18:39:26.185Z,36.49
2022-09-05T18:42:26.211Z,36.19
2022-09-05T18:45:01.125Z,36.47
2022-09-05T18:47:33.754Z,43.64
2022-09-05T18:50:25.712Z,41.33
2022-09-05T18:53:08.836Z,40.80
2022-09-05T18:56:13.922Z,45.19
2022-09-05T18:58:34.578Z,43.88
2022-09-05T19:01:29.616Z,44.33
2022-09-05T19:04:02.572Z,45.26
2022-09-05T19:06:41.481Z,44.41
2022-09-05T19:09:20.981Z,45.62
2022-09-05T19:12:33.239Z,44.97
2022-09-05T19:15:06.921Z,45.96
2022-09-05T19:17:46.860Z,45.15
2022-09-05T19:20:32.837Z,45.35
2022-09-05T19:23:13.198Z,43.74
2022-09-05T19:25:45.367Z,42.42
2022-09-05T19:36:44.554Z,42.30
2022-09-05T19:36:58.908Z,42.09
2022-09-05T19:37:13.240Z,44.40
2022-09-05T19:37:38.638Z,42.67
2022-09-05T19:47:00.500Z,44.77
2022-09-05T19:47:26.678Z,46.10
2022-09-05T19:47:42.806Z,45.18
2022-09-05T19:49:10.988Z,43.52
2022-09-05T19:51:41.532Z,47.00
2022-09-05T19:54:24.082Z,45.03
2022-09-05T19:56:51.538Z,49.41
2022-09-05T19:59:22.714Z,46.08
2022-09-05T20:01:53.460Z,45.11
2022-09-05T20:04:21.941Z,45.01
2022-09-05T20:06:50.862Z,49.35
2022-09-05T20:09:20.964Z,50.24
2022-09-05T20:11:51.135Z,46.75
2022-09-05T20:14:25.885Z,46.31
2022-09-05T20:16:58.162Z,46.37
2022-09-05T20:19:35.113Z,49.44
2022-09-05T20:22:31.834Z,45.32
2022-09-05T20:24:54.795Z,44.90
2022-09-05T20:27:27.472Z,50.59
2022-09-05T20:30:02.780Z,49.82
2022-09-05T20:32:40.698Z,50.74
2022-09-05T20:37:24.038Z,48.94
2022-09-05T20:43:11.549Z,47.22
2022-09-05T20:43:27.433Z,49.94
2022-09-05T20:44:17.568Z,51.97
2022-09-05T20:54:09.664Z,53.44
2022-09-05T20:54:20.541Z,50.74
2022-09-05T20:54:26.064Z,48.60
2022-09-05T20:56:05.575Z,49.51
2022-09-05T20:58:39.526Z,51.72
2022-09-05T21:01:23.065Z,54.46
2022-09-05T21:03:59.316Z,56.56
2022-09-05T21:06:33.436Z,52.56
2022-09-05T21:09:24.866Z,50.66
2022-09-05T21:12:00.485Z,49.95
2022-09-05T21:14:30.272Z,48.45
2022-09-05T21:17:15.657Z,48.40
2022-09-05T21:19:56.956Z,53.03
2022-09-05T21:22:47.272Z,56.67
2022-09-05T21:25:44.390Z,58.11
2022-09-05T21:28:40.320Z,56.60
2022-09-05T21:31:21.330Z,51.31
2022-09-05T21:33:57.434Z,55.02
2022-09-05T21:36:28.523Z,55.89
2022-09-05T21:39:01.047Z,59.06
2022-09-05T21:41:33.145Z,52.10
2022-09-05T21:47:37.393Z,53.74
2022-09-05T21:47:43.874Z,53.61
2022-09-05T21:49:59.030Z,58.67
2022-09-05T21:52:31.427Z,52.28
2022-09-05T21:59:14.523Z,51.32
2022-09-05T21:59:21.315Z,50.24
2022-09-05T22:00:51.205Z,50.29
2022-09-05T22:03:27.280Z,55.28
2022-09-05T22:06:02.620Z,52.53
2022-09-05T22:09:05.249Z,50.89
2022-09-05T22:11:38.115Z,50.09
2022-09-05T22:14:09.348Z,49.83
2022-09-05T22:16:45.117Z,51.57
2022-09-05T22:19:45.527Z,54.82
2022-09-05T22:22:21.933Z,56.65
2022-09-05T22:25:00.485Z,51.96
2022-09-05T22:27:34.419Z,51.25
2022-09-05T22:30:12.943Z,55.56
2022-09-05T22:32:48.868Z,52.53
2022-09-05T22:35:28.344Z,56.09
2022-09-05T22:38:19.756Z,51.49
2022-09-05T22:40:57.021Z,50.88
2022-09-05T22:43:32.292Z,51.34
2022-09-05T22:46:04.032Z,54.84
2022-09-05T22:48:34.295Z,56.86
2022-09-05T22:51:06.974Z,52.65
2022-09-05T22:53:36.485Z,51.56
2022-09-05T22:56:09.822Z,51.12
2022-09-05T22:58:45.671Z,51.25
2022-09-05T23:01:18.346Z,50.35
2022-09-05T23:03:48.235Z,50.69
2022-09-05T23:06:17.948Z,50.63
2022-09-05T23:08:53.213Z,51.41
2022-09-05T23:11:23.619Z,50.73
2022-09-05T23:13:56.039Z,58.51
2022-09-05T23:16:36.568Z,52.39
2022-09-05T23:19:08.143Z,56.98
2022-09-05T23:21:57.845Z,55.93
2022-09-05T23:24:30.061Z,56.84
2022-09-05T23:27:05.347Z,60.93
2022-09-05T23:29:35.650Z,57.00
2022-09-05T23:32:05.690Z,55.58
2022-09-05T23:34:37.626Z,57.81
2022-09-05T23:37:11.672Z,55.39
2022-09-05T23:39:44.310Z,54.06
2022-09-05T23:42:19.762Z,54.03
2022-09-05T23:44:53.050Z,54.41
2022-09-05T23:47:23.388Z,64.63
2022-09-05T23:49:53.630Z,63.84
2022-09-05T23:52:29.556Z,70.36
2022-09-05T23:54:59.307Z,69.59
2022-09-05T23:57:34.763Z,66.94
